Time;durP1;ratioP1;P1;durP2;ratioP2;P2;SDS_P1;SDS_P2;PMS_P1;PMS_P2;Temp;Humidity;BMP_temperature;BMP_pressure;BME280_temperature;BME280_humidity;BME280_pressure;Samples;Min_cycle;Max_cycle;Signal;HPM_P1;HPM_P2
2023/07/31 00:01:20;;;;;;;1.55;0.77;;;18.10;99.90;;;;;;5030763;28;20025;-84
2023/07/31 00:03:47;;;;;;;2.28;1.10;;;18.10;99.90;;;;;;5031187;28;20029;-83
2023/07/31 00:06:12;;;;;;;2.70;1.23;;;18.10;99.90;;;;;;5032347;28;20041;-84
2023/07/31 00:08:38;;;;;;;5.05;1.40;;;18.00;99.90;;;;;;5036707;28;20092;-84
2023/07/31 00:11:04;;;;;;;2.83;1.20;;;17.90;99.90;;;;;;5051055;28;20756;-84
2023/07/31 00:13:29;;;;;;;2.08;1.08;;;17.90;99.90;;;;;;5052271;28;20048;-84
2023/07/31 00:15:55;;;;;;;2.45;1.33;;;17.80;99.90;;;;;;5050693;28;20550;-85
2023/07/31 00:18:21;;;;;;;1.80;1.17;;;17.80;99.90;;;;;;5050832;28;20017;-85
2023/07/31 00:20:47;;;;;;;2.03;1.10;;;17.70;99.90;;;;;;5051079;28;20417;-85
2023/07/31 00:23:12;;;;;;;2.45;1.10;;;17.70;99.90;;;;;;5050724;28;20060;-84
2023/07/31 00:25:38;;;;;;;2.45;1.33;;;17.60;99.90;;;;;;5051817;28;20037;-83
2023/07/31 00:28:04;;;;;;;3.47;1.45;;;17.60;99.90;;;;;;5051901;28;20028;-84
2023/07/31 00:30:29;;;;;;;4.35;1.33;;;17.60;99.90;;;;;;5051898;28;20063;-84
2023/07/31 00:32:55;;;;;;;6.03;1.52;;;17.50;99.90;;;;;;5051902;28;20441;-80
2023/07/31 00:35:21;;;;;;;2.47;1.17;;;17.50;99.90;;;;;;5050287;28;20029;-84
2023/07/31 00:37:46;;;;;;;3.65;1.42;;;17.40;99.90;;;;;;5051436;28;20070;-84
2023/07/31 00:40:13;;;;;;;2.40;1.25;;;17.40;99.90;;;;;;5050184;28;20048;-85
2023/07/31 00:42:39;;;;;;;3.05;1.40;;;17.40;99.90;;;;;;5051326;28;20017;-81
2023/07/31 00:45:05;;;;;;;2.63;1.40;;;17.40;99.90;;;;;;5048070;28;20111;-82
2023/07/31 00:47:31;;;;;;;2.47;1.25;;;17.40;99.90;;;;;;5050978;28;20064;-82
2023/07/31 00:49:57;;;;;;;3.70;1.48;;;17.40;99.90;;;;;;5049766;28;20110;-82
2023/07/31 00:52:23;;;;;;;5.38;1.50;;;17.30;99.90;;;;;;5050227;28;20024;-82
2023/07/31 00:54:50;;;;;;;2.35;1.30;;;17.30;99.90;;;;;;5051339;28;20075;-81
2023/07/31 00:57:15;;;;;;;3.42;1.30;;;17.30;99.90;;;;;;5051085;28;20029;-82
2023/07/31 00:59:41;;;;;;;1.90;1.17;;;17.20;99.90;;;;;;5050172;28;20117;-82
2023/07/31 01:02:07;;;;;;;2.45;1.23;;;17.20;99.90;;;;;;5050883;28;20025;-83
2023/07/31 01:04:32;;;;;;;3.08;1.50;;;17.20;99.90;;;;;;5050164;28;20051;-82
2023/07/31 01:07:12;;;;;;;2.47;1.35;;;17.10;99.90;;;;;;5050073;28;20479;-83
2023/07/31 01:09:49;;;;;;;2.33;1.30;;;17.10;99.90;;;;;;5051222;28;20548;-83
2023/07/31 01:12:16;;;;;;;2.08;1.23;;;17.10;99.90;;;;;;5049837;28;20052;-82
2023/07/31 01:15:12;;;;;;;4.57;1.20;;;17.10;99.90;;;;;;5050988;28;20017;-84
2023/07/31 01:17:38;;;;;;;3.15;1.10;;;17.20;99.90;;;;;;5041454;28;20079;-84
2023/07/31 01:20:10;;;;;;;2.65;1.35;;;17.30;99.90;;;;;;5049897;28;20029;-82
2023/07/31 01:22:54;;;;;;;1.60;1.10;;;17.30;99.90;;;;;;5050775;28;20040;-83
2023/07/31 01:26:07;;;;;;;2.70;1.10;;;17.40;99.90;;;;;;5050697;28;20036;-83
2023/07/31 01:28:38;;;;;;;2.42;1.30;;;17.50;99.90;;;;;;5028297;28;20033;-82
2023/07/31 01:31:07;;;;;;;4.22;1.30;;;17.50;99.90;;;;;;5046140;28;20583;-84
2023/07/31 01:33:34;;;;;;;3.83;1.40;;;17.60;99.90;;;;;;5050531;28;20064;-84
2023/07/31 01:36:00;;;;;;;1.98;0.90;;;17.70;99.90;;;;;;5049209;28;20021;-83
2023/07/31 01:38:26;;;;;;;3.55;1.20;;;17.70;99.90;;;;;;5050823;28;20500;-83
2023/07/31 01:40:53;;;;;;;10.40;1.02;;;17.80;99.90;;;;;;5049194;28;20551;-84
2023/07/31 01:43:19;;;;;;;1.70;1.00;;;17.80;99.90;;;;;;5050520;28;20086;-83
2023/07/31 01:45:45;;;;;;;1.58;0.80;;;17.90;99.90;;;;;;5049163;28;20033;-82
2023/07/31 01:48:10;;;;;;;2.17;1.20;;;17.90;99.90;;;;;;5050382;28;20102;-81
2023/07/31 01:50:36;;;;;;;4.03;1.45;;;17.90;99.90;;;;;;5048912;28;20032;-83
2023/07/31 01:53:02;;;;;;;5.53;0.80;;;17.90;99.90;;;;;;5050438;28;20040;-82
2023/07/31 01:55:27;;;;;;;2.53;1.20;;;17.90;99.90;;;;;;5050215;28;20040;-78
2023/07/31 01:57:53;;;;;;;2.25;0.90;;;17.90;99.90;;;;;;5050299;28;20151;-83
2023/07/31 02:00:19;;;;;;;3.38;1.10;;;17.90;99.90;;;;;;5050235;28;20025;-82
2023/07/31 02:02:44;;;;;;;2.90;0.95;;;17.80;99.90;;;;;;5048774;28;20505;-83
2023/07/31 02:05:10;;;;;;;1.88;0.80;;;17.90;99.90;;;;;;5044946;28;20041;-82
2023/07/31 02:07:36;;;;;;;1.67;0.90;;;17.80;99.90;;;;;;5029940;28;20040;-82
2023/07/31 02:10:01;;;;;;;1.30;0.90;;;17.90;99.90;;;;;;5030018;28;20032;-82
2023/07/31 02:12:30;;;;;;;1.60;0.70;;;17.90;99.90;;;;;;5027921;28;20512;-83
2023/07/31 02:14:56;;;;;;;1.80;0.93;;;18.00;99.90;;;;;;5029898;28;20032;-84
2023/07/31 02:17:21;;;;;;;2.47;0.90;;;18.10;99.90;;;;;;5035841;28;20045;-84
2023/07/31 02:19:47;;;;;;;2.85;1.08;;;18.00;99.90;;;;;;5041501;28;20033;-84
2023/07/31 02:22:13;;;;;;;1.95;1.00;;;18.00;99.90;;;;;;5028698;28;20489;-84
2023/07/31 02:24:38;;;;;;;3.20;0.73;;;17.90;99.90;;;;;;5028359;28;20026;-84
2023/07/31 02:27:04;;;;;;;2.28;0.80;;;17.80;99.90;;;;;;5029851;28;20120;-83
2023/07/31 02:29:30;;;;;;;7.88;0.98;;;17.80;99.90;;;;;;5028338;28;20508;-83
2023/07/31 02:31:55;;;;;;;1.27;0.80;;;17.80;99.90;;;;;;5029071;28;20041;-82
2023/07/31 02:34:21;;;;;;;2.33;0.73;;;17.80;99.90;;;;;;5029298;28;20030;-82
2023/07/31 02:36:47;;;;;;;2.10;0.80;;;17.70;99.90;;;;;;5031289;28;20031;-84
2023/07/31 02:39:12;;;;;;;1.30;0.70;;;17.70;99.90;;;;;;5049574;28;20059;-84
2023/07/31 02:41:38;;;;;;;1.98;0.65;;;17.70;99.90;;;;;;5049620;28;20040;-82
2023/07/31 02:44:04;;;;;;;1.95;1.00;;;17.70;99.90;;;;;;5048075;28;20032;-82
2023/07/31 02:46:29;;;;;;;1.45;0.77;;;17.70;99.90;;;;;;5048485;28;20054;-82
2023/07/31 02:48:55;;;;;;;2.70;0.82;;;17.70;99.90;;;;;;5048405;28;20032;-84
2023/07/31 02:51:21;;;;;;;2.03;0.80;;;17.60;99.90;;;;;;5048078;28;20040;-84
2023/07/31 02:53:47;;;;;;;1.75;1.02;;;17.60;99.90;;;;;;5049500;28;20057;-83
2023/07/31 02:56:13;;;;;;;2.08;0.90;;;17.60;99.90;;;;;;5049264;28;20104;-83
2023/07/31 02:58:39;;;;;;;4.82;0.88;;;17.50;99.90;;;;;;5048176;28;20123;-83
2023/07/31 03:01:05;;;;;;;1.42;0.77;;;17.40;99.90;;;;;;5049456;28;20029;-84
2023/07/31 03:03:31;;;;;;;1.63;0.70;;;17.40;99.90;;;;;;5048119;28;20029;-84
2023/07/31 03:05:56;;;;;;;4.55;0.88;;;17.40;99.90;;;;;;5049326;28;20051;-83
2023/07/31 03:08:22;;;;;;;3.53;0.88;;;17.30;99.90;;;;;;5047811;28;20050;-83
2023/07/31 03:10:48;;;;;;;4.13;0.93;;;17.30;99.90;;;;;;5047924;28;20028;-81
2023/07/31 03:13:14;;;;;;;4.32;1.20;;;17.20;99.90;;;;;;5048031;28;20048;-81
2023/07/31 03:15:43;;;;;;;2.97;1.00;;;17.10;99.90;;;;;;5049659;28;20033;-84
2023/07/31 03:18:09;;;;;;;2.20;0.90;;;17.10;99.90;;;;;;5048184;28;20045;-84
2023/07/31 03:20:34;;;;;;;2.42;0.70;;;17.10;99.90;;;;;;5039213;28;20490;-83
2023/07/31 03:23:00;;;;;;;2.55;0.80;;;17.20;99.90;;;;;;5036735;28;20056;-84
2023/07/31 03:25:25;;;;;;;1.30;0.73;;;17.20;99.90;;;;;;5033008;28;20045;-84
2023/07/31 03:27:51;;;;;;;2.45;1.25;;;17.10;99.90;;;;;;5032252;28;20614;-85
2023/07/31 03:30:17;;;;;;;1.15;0.60;;;17.20;99.90;;;;;;5033472;28;20034;-83
2023/07/31 03:32:42;;;;;;;3.17;0.80;;;17.20;99.90;;;;;;5035149;28;20041;-82
2023/07/31 03:35:08;;;;;;;1.60;0.70;;;17.30;99.90;;;;;;5040435;28;20056;-81
2023/07/31 03:37:34;;;;;;;1.60;0.88;;;17.30;99.90;;;;;;5039984;28;20029;-83
2023/07/31 03:39:59;;;;;;;3.40;0.77;;;17.30;99.90;;;;;;5033330;28;20026;-83
2023/07/31 03:42:25;;;;;;;1.65;0.73;;;17.20;99.90;;;;;;5050497;28;20053;-81
2023/07/31 03:44:50;;;;;;;3.72;0.70;;;17.30;99.90;;;;;;5051074;28;20067;-82
2023/07/31 03:47:16;;;;;;;1.88;0.70;;;17.30;99.90;;;;;;5050383;28;20552;-81
2023/07/31 03:49:42;;;;;;;1.38;0.77;;;17.50;99.90;;;;;;5043861;28;20030;-79
2023/07/31 03:52:07;;;;;;;1.17;0.57;;;17.60;99.90;;;;;;5037666;28;20055;-78
2023/07/31 03:54:33;;;;;;;1.95;1.08;;;17.80;99.90;;;;;;5043198;28;20024;-81
2023/07/31 03:56:59;;;;;;;3.90;1.35;;;18.00;99.90;;;;;;5042789;28;20087;-82
2023/07/31 03:59:24;;;;;;;1.33;0.88;;;18.10;99.90;;;;;;5041593;28;20017;-78
2023/07/31 04:01:50;;;;;;;3.42;1.00;;;18.20;99.90;;;;;;5041404;28;20033;-81
2023/07/31 04:04:15;;;;;;;1.83;0.75;;;18.30;99.90;;;;;;5040053;28;20516;-81
2023/07/31 04:06:41;;;;;;;1.83;0.60;;;18.40;99.90;;;;;;5040147;28;20041;-80
2023/07/31 04:09:07;;;;;;;1.25;0.73;;;18.50;99.90;;;;;;5042421;28;20036;-80
2023/07/31 04:11:32;;;;;;;1.50;0.85;;;18.60;99.90;;;;;;5042685;28;20036;-81
2023/07/31 04:13:58;;;;;;;2.13;0.80;;;18.70;99.90;;;;;;5038771;28;20435;-81
2023/07/31 04:16:24;;;;;;;2.17;0.80;;;18.70;99.90;;;;;;5042580;28;20029;-81
2023/07/31 04:18:49;;;;;;;1.45;0.70;;;18.70;99.90;;;;;;5042630;28;20026;-81
2023/07/31 04:21:15;;;;;;;2.67;0.80;;;18.70;99.90;;;;;;5041204;28;20086;-82
2023/07/31 04:23:41;;;;;;;4.10;0.70;;;18.80;99.90;;;;;;5047996;28;20099;-82
2023/07/31 04:26:06;;;;;;;2.15;0.82;;;18.90;99.90;;;;;;5049987;28;20033;-81
2023/07/31 04:28:32;;;;;;;1.92;0.60;;;19.00;99.90;;;;;;5051340;28;20477;-81
2023/07/31 04:30:58;;;;;;;1.48;0.80;;;19.20;99.90;;;;;;5051666;28;20029;-81
2023/07/31 04:33:24;;;;;;;1.20;0.70;;;19.30;99.90;;;;;;5051503;28;20029;-81
2023/07/31 04:35:53;;;;;;;2.35;0.60;;;19.40;99.90;;;;;;5050871;28;20417;-80
2023/07/31 04:38:22;;;;;;;1.75;1.00;;;19.50;99.90;;;;;;5050188;28;20055;-81
2023/07/31 04:40:48;;;;;;;2.13;0.95;;;19.50;99.90;;;;;;5051140;28;20021;-78
2023/07/31 04:43:14;;;;;;;2.47;0.70;;;19.60;99.90;;;;;;5050318;28;20041;-80
2023/07/31 04:45:42;;;;;;;2.20;0.70;;;19.80;99.90;;;;;;5051299;28;20040;-81
2023/07/31 04:48:07;;;;;;;1.63;0.80;;;19.90;99.90;;;;;;5051442;28;20033;-80
2023/07/31 04:50:33;;;;;;;1.33;0.50;;;20.00;99.90;;;;;;5050046;28;20485;-80
2023/07/31 04:52:59;;;;;;;1.48;0.60;;;20.10;99.90;;;;;;5051307;28;20028;-80
2023/07/31 04:55:24;;;;;;;2.22;0.80;;;20.30;99.90;;;;;;5049621;28;20701;-79
2023/07/31 04:57:50;;;;;;;2.00;0.73;;;20.40;99.90;;;;;;5051096;28;20032;-80
2023/07/31 05:00:16;;;;;;;1.50;0.80;;;20.50;99.90;;;;;;5050995;28;20044;-80
2023/07/31 05:02:42;;;;;;;3.50;0.60;;;20.70;99.90;;;;;;5051069;28;20029;-80
2023/07/31 05:05:08;;;;;;;1.45;0.60;;;20.80;99.90;;;;;;5050937;28;20118;-80
2023/07/31 05:07:33;;;;;;;1.35;0.60;;;20.90;99.90;;;;;;5050936;28;20496;-80
2023/07/31 05:09:59;;;;;;;2.47;0.90;;;21.00;99.90;;;;;;5051002;28;20040;-78
2023/07/31 05:12:24;;;;;;;1.02;0.68;;;21.20;99.90;;;;;;5050765;28;20127;-80
2023/07/31 05:14:50;;;;;;;1.08;0.60;;;21.40;99.90;;;;;;5049993;28;20559;-79
2023/07/31 05:17:15;;;;;;;1.50;0.80;;;21.60;99.90;;;;;;5050401;28;20405;-78
2023/07/31 05:19:42;;;;;;;2.03;0.80;;;21.70;99.90;;;;;;5050476;28;20029;-78
2023/07/31 05:22:07;;;;;;;5.10;0.80;;;21.90;99.90;;;;;;5050060;28;20563;-78
2023/07/31 05:24:33;;;;;;;5.18;1.00;;;22.00;99.90;;;;;;5050094;28;20090;-80
2023/07/31 05:26:59;;;;;;;1.52;0.88;;;22.20;99.90;;;;;;5050340;28;20029;-80
2023/07/31 05:29:25;;;;;;;1.08;0.52;;;22.50;99.90;;;;;;5049140;28;20072;-79
2023/07/31 05:31:50;;;;;;;1.20;0.60;;;22.70;99.90;;;;;;5050375;28;20507;-79
2023/07/31 05:34:16;;;;;;;1.40;0.68;;;22.80;99.90;;;;;;5048875;28;20129;-78
2023/07/31 05:36:41;;;;;;;1.27;0.70;;;23.00;99.90;;;;;;5049109;28;20574;-78
2023/07/31 05:39:08;;;;;;;15.70;1.00;;;23.00;99.90;;;;;;5050390;28;20028;-79
2023/07/31 05:41:35;;;;;;;2.38;1.30;;;23.10;99.90;;;;;;5048823;28;20033;-78
2023/07/31 05:44:01;;;;;;;2.88;0.75;;;23.10;99.90;;;;;;5049005;28;20020;-78
2023/07/31 05:46:26;;;;;;;2.17;0.50;;;23.10;99.90;;;;;;5050441;28;20044;-80
2023/07/31 05:48:52;;;;;;;1.63;0.80;;;23.20;99.90;;;;;;5048538;28;20025;-79
2023/07/31 05:51:18;;;;;;;2.63;0.80;;;23.20;99.90;;;;;;5050017;28;20044;-79
2023/07/31 05:53:43;;;;;;;2.25;0.75;;;23.20;99.90;;;;;;5049897;28;20492;-79
2023/07/31 05:56:09;;;;;;;1.50;0.70;;;23.20;99.90;;;;;;5049966;28;20557;-78
2023/07/31 05:58:34;;;;;;;1.00;0.60;;;23.40;99.90;;;;;;5049727;28;20025;-79
2023/07/31 06:01:00;;;;;;;2.55;0.80;;;23.70;98.30;;;;;;5048183;28;20082;-79
2023/07/31 06:03:26;;;;;;;2.15;0.88;;;24.20;96.00;;;;;;5049700;28;20059;-78
2023/07/31 06:05:51;;;;;;;2.80;0.65;;;24.30;94.30;;;;;;5048294;28;20132;-79
2023/07/31 06:08:17;;;;;;;1.10;0.60;;;24.70;92.60;;;;;;5048430;28;20025;-80
2023/07/31 06:10:43;;;;;;;4.93;0.70;;;24.90;90.60;;;;;;5049647;28;20082;-77
2023/07/31 06:13:09;;;;;;;2.70;0.60;;;25.10;89.40;;;;;;5048274;28;20148;-79
2023/07/31 06:15:34;;;;;;;2.75;0.50;;;25.20;86.70;;;;;;5048418;28;20040;-79
2023/07/31 06:18:01;;;;;;;1.08;0.52;;;25.80;84.40;;;;;;5048062;28;20436;-79
2023/07/31 06:20:28;;;;;;;1.50;0.57;;;26.60;77.80;;;;;;5048349;28;20029;-78
2023/07/31 06:22:54;;;;;;;3.47;0.70;;;27.30;70.40;;;;;;5048213;28;20033;-79
2023/07/31 06:25:19;;;;;;;1.75;0.73;;;27.50;64.10;;;;;;5049563;28;20111;-79
2023/07/31 06:27:45;;;;;;;5.05;1.02;;;27.00;64.30;;;;;;5049427;28;20036;-78
2023/07/31 06:30:11;;;;;;;0.90;0.60;;;26.60;65.10;;;;;;5048149;28;20025;-79
2023/07/31 06:32:37;;;;;;;1.45;0.80;;;26.20;66.60;;;;;;5049448;28;20029;-78
2023/07/31 06:35:07;;;;;;;2.35;0.70;;;25.90;69.20;;;;;;5048349;28;20340;-79
2023/07/31 06:37:32;;;;;;;2.83;0.70;;;26.20;71.00;;;;;;5049306;28;20035;-79
2023/07/31 06:39:58;;;;;;;1.60;0.68;;;26.50;67.90;;;;;;5049407;28;20025;-79
2023/07/31 06:42:24;;;;;;;2.67;0.63;;;26.50;66.50;;;;;;5048421;28;20021;-78
2023/07/31 06:44:49;;;;;;;6.28;0.98;;;26.40;66.60;;;;;;5049095;28;20025;-78
2023/07/31 06:47:15;;;;;;;1.50;0.90;;;26.30;66.60;;;;;;5049316;28;20043;-77
2023/07/31 06:49:41;;;;;;;1.80;0.80;;;26.10;66.70;;;;;;5047811;28;20029;-78
2023/07/31 06:52:06;;;;;;;2.50;0.70;;;26.50;66.80;;;;;;5048177;28;20037;-78
2023/07/31 06:54:32;;;;;;;1.10;0.60;;;27.20;64.70;;;;;;5048977;28;20029;-79
2023/07/31 06:56:58;;;;;;;2.28;1.38;;;27.90;61.80;;;;;;5049138;28;20025;-78
2023/07/31 06:59:23;;;;;;;2.92;0.65;;;28.50;59.90;;;;;;5049036;28;20079;-79
2023/07/31 07:01:49;;;;;;;1.35;0.50;;;29.20;56.50;;;;;;5050680;28;20474;-78
2023/07/31 07:04:15;;;;;;;1.88;0.77;;;29.30;54.80;;;;;;5053230;28;20052;-78
2023/07/31 07:06:40;;;;;;;2.47;0.82;;;29.40;53.40;;;;;;5051859;28;20036;-79
2023/07/31 07:09:06;;;;;;;5.50;1.00;;;29.70;52.40;;;;;;5052792;28;20029;-79
2023/07/31 07:11:32;;;;;;;2.25;0.90;;;29.80;52.60;;;;;;5052718;28;20040;-79
2023/07/31 07:13:57;;;;;;;2.13;0.95;;;30.30;51.20;;;;;;5051741;28;20033;-79
2023/07/31 07:16:23;;;;;;;1.77;1.00;;;30.40;50.40;;;;;;5051475;28;20036;-78
2023/07/31 07:18:49;;;;;;;1.50;0.70;;;30.20;50.20;;;;;;5051584;28;20122;-79
2023/07/31 07:21:15;;;;;;;3.78;0.70;;;31.00;48.80;;;;;;5051326;28;20021;-79
2023/07/31 07:23:42;;;;;;;6.93;0.75;;;31.30;45.90;;;;;;5051262;28;20021;-79
2023/07/31 07:26:08;;;;;;;1.30;0.73;;;31.50;45.90;;;;;;5052683;28;20052;-78
2023/07/31 07:28:33;;;;;;;4.70;0.80;;;31.60;44.80;;;;;;5052345;28;20039;-78
2023/07/31 07:30:59;;;;;;;2.40;0.70;;;31.30;45.30;;;;;;5052227;28;20032;-79
2023/07/31 07:33:25;;;;;;;4.90;1.00;;;30.80;45.80;;;;;;5051334;28;20552;-79
2023/07/31 07:35:51;;;;;;;2.75;0.88;;;30.40;46.40;;;;;;5052301;28;20032;-79
2023/07/31 07:38:16;;;;;;;4.82;1.00;;;30.50;46.50;;;;;;5051101;28;20032;-79
2023/07/31 07:40:42;;;;;;;2.25;0.88;;;30.10;46.00;;;;;;5052405;28;20029;-79
2023/07/31 07:43:08;;;;;;;2.38;0.65;;;30.10;47.50;;;;;;5052383;28;20028;-79
2023/07/31 07:45:33;;;;;;;1.88;0.98;;;30.30;46.40;;;;;;5052208;28;20180;-79
2023/07/31 07:47:59;;;;;;;1.55;0.65;;;30.90;45.20;;;;;;5052004;28;20482;-80
2023/07/31 07:50:25;;;;;;;1.40;0.70;;;31.30;43.90;;;;;;5052484;28;20029;-78
2023/07/31 07:52:51;;;;;;;2.90;1.23;;;31.40;43.70;;;;;;5051397;28;20029;-78
2023/07/31 07:55:17;;;;;;;10.93;1.40;;;31.20;43.60;;;;;;5052232;28;20446;-78
2023/07/31 07:57:44;;;;;;;2.45;0.80;;;31.00;43.10;;;;;;5050856;28;20493;-79
2023/07/31 08:00:10;;;;;;;3.20;0.70;;;30.70;43.40;;;;;;5052372;28;20092;-78
2023/07/31 08:02:36;;;;;;;2.55;0.75;;;30.40;44.60;;;;;;5051548;28;20147;-79
2023/07/31 08:05:01;;;;;;;2.08;0.70;;;30.50;44.60;;;;;;5051741;28;20040;-78
2023/07/31 08:07:27;;;;;;;2.15;0.65;;;30.50;44.40;;;;;;5051889;28;20033;-80
2023/07/31 08:09:52;;;;;;;1.33;0.80;;;30.60;43.60;;;;;;5046778;28;20057;-79
2023/07/31 08:12:18;;;;;;;2.00;0.77;;;30.60;43.60;;;;;;5040043;28;20056;-79
2023/07/31 08:14:44;;;;;;;1.63;0.63;;;30.80;44.30;;;;;;5031824;28;20056;-79
2023/07/31 08:17:09;;;;;;;3.53;0.73;;;30.80;43.30;;;;;;5031988;28;20025;-79
2023/07/31 08:19:35;;;;;;;1.75;0.65;;;31.00;43.20;;;;;;5033057;28;20370;-80
2023/07/31 08:22:01;;;;;;;5.88;0.70;;;31.60;42.60;;;;;;5039364;28;20045;-79
2023/07/31 08:24:26;;;;;;;2.97;0.63;;;32.20;41.00;;;;;;5031722;28;20029;-78
2023/07/31 08:26:52;;;;;;;1.55;0.88;;;32.80;39.00;;;;;;5031676;28;20398;-79
2023/07/31 08:29:17;;;;;;;2.00;0.80;;;32.90;38.70;;;;;;5033572;28;20060;-79
2023/07/31 08:31:43;;;;;;;1.77;0.70;;;33.50;37.30;;;;;;5032330;28;20132;-80
2023/07/31 08:34:09;;;;;;;1.52;0.70;;;33.60;36.40;;;;;;5035479;28;20033;-78
2023/07/31 08:36:34;;;;;;;1.45;0.70;;;33.60;36.20;;;;;;5038011;28;20021;-78
2023/07/31 08:39:00;;;;;;;2.80;1.05;;;33.70;36.10;;;;;;5038559;28;20025;-80
2023/07/31 08:41:27;;;;;;;2.80;0.60;;;33.70;35.00;;;;;;5048447;28;20409;-80
2023/07/31 08:43:55;;;;;;;2.00;0.80;;;33.80;35.20;;;;;;5051256;28;20393;-80
2023/07/31 08:46:21;;;;;;;2.67;0.80;;;34.10;34.30;;;;;;5051107;28;20403;-78
2023/07/31 08:48:47;;;;;;;1.35;0.63;;;34.20;34.10;;;;;;5048039;28;20021;-79
2023/07/31 08:51:15;;;;;;;3.00;0.98;;;33.90;33.70;;;;;;5045900;28;20025;-80
2023/07/31 08:53:40;;;;;;;1.85;0.82;;;33.50;33.20;;;;;;5043587;28;20037;-80
2023/07/31 08:56:07;;;;;;;1.55;0.70;;;32.40;34.20;;;;;;5050705;28;20028;-80
2023/07/31 08:58:33;;;;;;;1.73;0.80;;;32.00;36.10;;;;;;5041262;28;20052;-79
2023/07/31 09:01:03;;;;;;;1.70;0.93;;;32.00;36.70;;;;;;5031103;28;20017;-79
2023/07/31 09:03:32;;;;;;;3.95;1.00;;;32.50;36.30;;;;;;5030908;28;20413;-80
2023/07/31 09:05:59;;;;;;;3.75;0.80;;;33.00;35.80;;;;;;5030699;28;20065;-79
2023/07/31 09:08:28;;;;;;;1.30;0.70;;;33.10;35.40;;;;;;5031042;28;20021;-79
2023/07/31 09:10:55;;;;;;;1.13;0.77;;;33.60;35.10;;;;;;5040478;28;20033;-78
2023/07/31 09:13:21;;;;;;;2.30;0.82;;;34.20;33.40;;;;;;5049380;28;20467;-79
2023/07/31 09:15:47;;;;;;;3.53;0.60;;;34.50;32.30;;;;;;5049508;28;20029;-80
2023/07/31 09:18:17;;;;;;;4.68;0.85;;;34.60;32.20;;;;;;5043252;28;20029;-80
2023/07/31 09:20:42;;;;;;;3.05;0.80;;;35.00;32.40;;;;;;5038196;28;20084;-80
2023/07/31 09:23:14;;;;;;;3.30;0.80;;;35.30;31.40;;;;;;5030347;28;20033;-83
2023/07/31 09:25:43;;;;;;;1.52;1.08;;;35.20;31.80;;;;;;5029199;28;20041;-79
2023/07/31 09:28:10;;;;;;;1.60;0.70;;;35.40;31.30;;;;;;5029157;28;20112;-82
2023/07/31 09:30:49;;;;;;;1.65;0.63;;;35.00;31.10;;;;;;5029464;28;20517;-79
2023/07/31 09:33:16;;;;;;;1.30;0.90;;;34.70;31.60;;;;;;5030554;28;20025;-79
2023/07/31 09:35:42;;;;;;;0.98;0.60;;;34.00;32.40;;;;;;5030590;28;20029;-80
2023/07/31 09:38:13;;;;;;;3.33;0.70;;;33.40;32.50;;;;;;5030399;28;20029;-79
2023/07/31 09:40:46;;;;;;;1.20;0.70;;;32.70;34.20;;;;;;5030361;28;20568;-82
2023/07/31 09:43:17;;;;;;;1.70;0.70;;;32.40;35.70;;;;;;5030444;28;20076;-79
2023/07/31 09:45:45;;;;;;;1.65;0.98;;;32.30;35.90;;;;;;5029689;28;20056;-79
2023/07/31 09:48:12;;;;;;;5.00;1.00;;;32.00;36.30;;;;;;5028919;28;20411;-78
2023/07/31 09:50:41;;;;;;;3.80;0.95;;;32.20;37.00;;;;;;5030450;28;20545;-85
2023/07/31 09:53:08;;;;;;;3.67;0.95;;;32.70;36.70;;;;;;5030229;28;20088;-78
2023/07/31 09:55:35;;;;;;;2.05;1.00;;;33.10;35.60;;;;;;5029791;28;20418;-78
2023/07/31 09:58:04;;;;;;;2.55;1.00;;;33.50;35.20;;;;;;5028317;28;20017;-78
2023/07/31 10:00:31;;;;;;;1.85;1.02;;;33.40;35.70;;;;;;5028676;28;20516;-79
2023/07/31 10:03:04;;;;;;;2.10;0.70;;;33.80;34.40;;;;;;5029739;28;20645;-78
2023/07/31 10:05:39;;;;;;;1.17;0.60;;;34.30;34.40;;;;;;5028170;28;20477;-79
2023/07/31 10:08:07;;;;;;;0.90;0.60;;;34.70;32.90;;;;;;5023907;28;20033;-78
2023/07/31 10:10:35;;;;;;;1.73;0.60;;;34.70;33.40;;;;;;5028231;28;20068;-78
2023/07/31 10:13:02;;;;;;;1.63;0.80;;;34.80;33.90;;;;;;5029518;28;20084;-78
2023/07/31 10:15:29;;;;;;;5.25;1.35;;;34.20;32.80;;;;;;5028239;28;20091;-79
2023/07/31 10:17:56;;;;;;;7.65;0.85;;;32.90;33.90;;;;;;5028422;28;20064;-79
2023/07/31 10:20:22;;;;;;;8.10;0.95;;;31.70;35.30;;;;;;5030111;28;20423;-79
2023/07/31 10:22:48;;;;;;;2.92;0.80;;;30.70;37.70;;;;;;5042050;28;20488;-78
2023/07/31 10:25:16;;;;;;;3.45;1.23;;;30.00;39.00;;;;;;5048273;28;20034;-78
2023/07/31 10:27:42;;;;;;;2.92;0.80;;;29.40;41.40;;;;;;5048250;28;20048;-79
2023/07/31 10:30:20;;;;;;;2.00;0.77;;;28.80;41.10;;;;;;5048092;28;20489;-81
2023/07/31 10:32:48;;;;;;;2.05;0.82;;;28.50;43.10;;;;;;5047521;28;20036;-79
2023/07/31 10:35:15;;;;;;;3.95;0.90;;;28.30;44.00;;;;;;5047833;28;20047;-79
2023/07/31 10:37:42;;;;;;;5.32;1.00;;;28.20;45.70;;;;;;5049460;28;20029;-79
2023/07/31 10:40:22;;;;;;;2.00;0.85;;;28.30;44.70;;;;;;5048038;28;20040;-79
2023/07/31 10:42:55;;;;;;;4.38;0.88;;;28.50;45.80;;;;;;5049382;28;20025;-78
2023/07/31 10:45:39;;;;;;;4.85;1.00;;;28.90;44.60;;;;;;5049183;28;20033;-79
2023/07/31 10:48:16;;;;;;;3.70;0.98;;;29.00;42.00;;;;;;5049112;28;20473;-79
2023/07/31 10:50:50;;;;;;;4.63;0.82;;;29.00;41.90;;;;;;5043235;28;20034;-80
2023/07/31 10:53:29;;;;;;;3.05;0.60;;;28.80;43.60;;;;;;5037186;28;20542;-79
2023/07/31 10:55:59;;;;;;;1.95;0.85;;;28.80;43.00;;;;;;5040591;28;20029;-79
2023/07/31 10:58:25;;;;;;;1.63;0.60;;;28.90;43.70;;;;;;5049397;28;20025;-79
2023/07/31 11:00:56;;;;;;;1.35;0.80;;;29.20;43.70;;;;;;5047768;28;20060;-80
2023/07/31 11:03:25;;;;;;;2.15;1.20;;;29.30;41.20;;;;;;5049139;28;20035;-79
2023/07/31 11:05:55;;;;;;;2.38;1.00;;;29.50;40.30;;;;;;5047866;28;20044;-79
2023/07/31 11:08:26;;;;;;;4.85;0.63;;;29.70;40.70;;;;;;5038675;28;20393;-80
2023/07/31 11:11:01;;;;;;;1.73;0.90;;;29.70;39.30;;;;;;5027764;28;20068;-79
2023/07/31 11:13:27;;;;;;;1.10;0.60;;;29.60;39.60;;;;;;5028736;28;20060;-79
2023/07/31 11:15:53;;;;;;;1.55;0.95;;;29.50;39.60;;;;;;5029002;28;20075;-79
2023/07/31 11:18:18;;;;;;;2.50;0.82;;;29.50;40.90;;;;;;5029113;28;20022;-78
2023/07/31 11:20:44;;;;;;;1.30;0.95;;;29.70;41.00;;;;;;5026615;28;20033;-78
2023/07/31 11:23:10;;;;;;;3.70;0.88;;;29.80;40.10;;;;;;5028697;28;20386;-79
2023/07/31 11:25:37;;;;;;;1.63;0.80;;;30.00;40.00;;;;;;5028818;28;20056;-79
2023/07/31 11:28:10;;;;;;;3.33;1.15;;;30.00;40.30;;;;;;5028808;28;20501;-79
2023/07/31 11:30:36;;;;;;;1.73;0.80;;;30.10;40.40;;;;;;5028926;28;20037;-78
2023/07/31 11:33:03;;;;;;;1.63;0.60;;;30.30;41.20;;;;;;5028798;28;20124;-79
2023/07/31 11:35:49;;;;;;;1.63;0.80;;;30.20;41.90;;;;;;5027505;28;20036;-79
2023/07/31 11:38:41;;;;;;;1.30;0.85;;;30.40;40.90;;;;;;5028588;28;20033;-78
2023/07/31 11:41:07;;;;;;;3.35;0.82;;;30.40;40.40;;;;;;5028907;28;20069;-80
2023/07/31 11:43:33;;;;;;;2.42;0.68;;;30.40;40.00;;;;;;5027489;28;20057;-79
2023/07/31 11:46:02;;;;;;;1.65;0.55;;;30.00;40.20;;;;;;5031450;28;20045;-79
2023/07/31 11:48:36;;;;;;;2.90;0.60;;;29.80;40.90;;;;;;5032544;28;20188;-79
2023/07/31 11:51:08;;;;;;;5.68;0.70;;;29.80;42.30;;;;;;5031242;28;20524;-79
2023/07/31 11:53:50;;;;;;;2.08;1.05;;;29.90;41.60;;;;;;5032558;28;20040;-79
2023/07/31 11:56:20;;;;;;;2.67;0.88;;;30.00;40.30;;;;;;5032511;28;20034;-79
2023/07/31 11:58:48;;;;;;;5.72;0.85;;;29.80;40.30;;;;;;5030928;28;20124;-80
2023/07/31 12:01:17;;;;;;;4.75;0.80;;;29.50;40.90;;;;;;5032199;28;20065;-79
2023/07/31 12:03:44;;;;;;;7.20;1.00;;;29.20;41.60;;;;;;5032309;28;20029;-78
2023/07/31 12:06:09;;;;;;;3.00;0.88;;;29.00;42.30;;;;;;5032424;28;20379;-78
2023/07/31 12:08:36;;;;;;;1.45;0.63;;;28.80;43.00;;;;;;5031926;28;20079;-79
2023/07/31 12:11:09;;;;;;;2.20;0.82;;;28.80;43.60;;;;;;5032125;28;20536;-78
2023/07/31 12:13:35;;;;;;;2.75;0.95;;;28.90;42.90;;;;;;5031966;28;20052;-78
2023/07/31 12:16:03;;;;;;;2.83;1.33;;;29.10;43.70;;;;;;5030535;28;20036;-78
2023/07/31 12:18:32;;;;;;;6.03;1.95;;;29.30;43.70;;;;;;5030667;28;20446;-79
2023/07/31 12:21:01;;;;;;;4.28;0.70;;;29.50;41.90;;;;;;5031934;28;20493;-78
2023/07/31 12:23:28;;;;;;;5.15;0.77;;;29.60;42.20;;;;;;5031847;28;20047;-78
2023/07/31 12:26:12;;;;;;;6.00;0.90;;;29.70;41.20;;;;;;5031643;28;20089;-79
2023/07/31 12:28:41;;;;;;;1.83;0.68;;;29.70;40.40;;;;;;5030494;28;20022;-79
2023/07/31 12:31:13;;;;;;;2.53;0.77;;;29.80;41.70;;;;;;5032148;28;20056;-78
2023/07/31 12:33:40;;;;;;;3.08;0.85;;;29.70;40.30;;;;;;5030531;28;20406;-79
2023/07/31 12:36:14;;;;;;;1.58;0.70;;;29.70;41.50;;;;;;5031569;28;20121;-79
2023/07/31 12:38:41;;;;;;;2.78;0.85;;;29.60;42.10;;;;;;5031710;28;20029;-79
2023/07/31 12:41:06;;;;;;;3.10;0.70;;;29.60;42.20;;;;;;5031496;28;20083;-79
2023/07/31 12:43:33;;;;;;;1.83;0.73;;;29.50;40.50;;;;;;5031456;28;20030;-78
2023/07/31 12:45:59;;;;;;;2.33;1.00;;;29.50;40.90;;;;;;5031334;28;20036;-78